Have a Safe July 4th! 

Flight Track Log - Related Links

Times and Time Zones

All times are in EST time to prevent confusion due to time zone crossing. See the VAU9090 flight status page for this flight to view local times or setup timezone preferences in your user account.

Time Position Orientation Groundspeed Altitude Reporting Facility
EST Latitude Longitude Course Direction KTS MPH feet Rate Location/Type
Sat 05:19:08 PM 47.8839 -122.2680 196° South 39,000  Level Seattle Center
Sat 05:20:08 PM 47.8167 -122.2960 245° Southwest 402 463 4,300 -17,000 Descending Seattle Center
Sat 05:21:08 PM 47.7878 -122.3870 237° Southwest 267 307 5,000 1,900 Climbing Seattle Center
Sat 05:22:08 PM 47.7481 -122.4780 192° South 273 314 8,100 3,100 Climbing Seattle Center
Sat 05:23:08 PM 47.6894 -122.4970 162° South 307 353 11,200 3,150 Climbing Seattle Center
Sat 05:24:08 PM 47.6050 -122.4560 161° South 306 352 14,400 2,750 Climbing Seattle Center
Sat 05:25:08 PM 47.5167 -122.4110 177° South 320 368 16,700 1,950 Climbing Seattle Center
Sat 05:26:08 PM 47.4086 -122.4030 182° South 352 405 18,300 2,955 Climbing Seattle Center
Sat 05:27:20 PM 47.2439 -122.4100 181° South 445 512 23,200 3,545 Climbing Seattle Center
Sat 05:28:20 PM 47.1147 -122.4130 168° South 451 519 26,100 2,750 Climbing Seattle Center
Sat 05:29:20 PM 46.9806 -122.3700 163° South 480 552 28,700 2,450 Climbing Seattle Center
Sat 05:30:20 PM 46.8403 -122.3090 163° South 503 579 31,000 2,700 Climbing Seattle Center
Sat 05:31:20 PM 46.6958 -122.2450 163° South 523 602 34,100 3,000 Climbing Seattle Center
Sat 05:32:20 PM 46.5536 -122.1810 164° South 530 610 37,000 2,400 Climbing Seattle Center
Sat 05:33:20 PM 46.4214 -122.1250 163° South 523 602 38,900 1,000 Climbing Seattle Center
Sat 05:34:20 PM 46.2831 -122.0650 163° South 512 589 39,000 50 Climbing Seattle Center
Sat 05:35:20 PM 46.1531 -122.0060 163° South 507 583 39,000  Level Seattle Center
Sat 05:36:20 PM 46.0106 -121.9430 164° South 515 593 39,000  Level Seattle Center
Sat 05:37:20 PM 45.8719 -121.8840 164° South 522 601 39,000  Level Seattle Center
Sat 05:38:20 PM 45.7336 -121.8260 162° South 522 601 39,000  Level Seattle Center
Sat 05:39:20 PM 45.5950 -121.7610 164° South 527 606 39,000  Level Seattle Center
Sat 05:40:20 PM 45.4564 -121.7060 163° South 527 606 39,000  Level Seattle Center
Sat 05:41:32 PM 45.3219 -121.6490 163° South 521 600 39,000  Level Seattle Center
Sat 05:42:32 PM 45.1564 -121.5760 164° South 516 594 39,000  Level Seattle Center
Sat 05:43:32 PM 45.0178 -121.5210 163° South 516 594 39,000  Level Seattle Center
Sat 05:44:32 PM 44.8811 -121.4620 164° South 516 594 39,000  Level Seattle Center
Sat 05:45:32 PM 44.7547 -121.4110 163° South 516 594 39,000  Level Seattle Center
Sat 05:46:32 PM 44.6014 -121.3460 164° South 521 600 39,000  Level Seattle Center
Sat 05:47:32 PM 44.4647 -121.2900 165° South 521 600 39,000  Level Seattle Center
Sat 05:48:32 PM 44.3381 -121.2430 162° South 521 600 39,000  Level Seattle Center
Sat 05:49:32 PM 44.1972 -121.1810 165° South 521 600 39,000  Level Seattle Center
Sat 05:50:32 PM 44.0583 -121.1290 164° South 527 606 39,000  Level Seattle Center
Sat 05:51:32 PM 43.9172 -121.0710 164° South 532 612 39,000  Level Seattle Center
Sat 05:52:32 PM 43.7761 -121.0160 164° South 532 612 39,000  Level Seattle Center
Sat 05:53:32 PM 43.6369 -120.9620 162° South 532 612 39,000 -50 Level Seattle Center
Sat 05:54:32 PM 43.4919 -120.8960 164° South 532 612 38,900  Descending Seattle Center
Sat 05:55:32 PM 43.3506 -120.8390 164° South 532 612 39,000  Climbing Seattle Center
Sat 05:56:32 PM 43.2136 -120.7860 164° South 527 606 38,900 -50 Descending Seattle Center
Sat 05:57:32 PM 43.0722 -120.7320 165° South 527 606 38,900  Level Seattle Center
Sat 05:58:32 PM 42.9311 -120.6790 164° South 532 612 38,900  Level Seattle Center
Sat 05:59:32 PM 42.7878 -120.6230 164° South 532 612 38,900 50 Level Seattle Center
Sat 06:00:32 PM 42.6486 -120.5670 164° South 532 612 39,000  Climbing Seattle Center
Sat 06:01:32 PM 42.5072 -120.5120 167° South 532 612 38,900  Descending Seattle Center
Sat 06:02:32 PM 42.3678 -120.4680 168° South 526 605 39,000 50 Climbing Seattle Center
Sat 06:03:32 PM 42.2264 -120.4280 168° South 526 605 39,000  Level Seattle Center
Sat 06:04:33 PM 42.0828 -120.3870 167° South 526 605 39,000  Level Seattle Center
Sat 06:05:32 PM 41.9456 -120.3440 168° South 526 605 39,000 -50 Level Seattle Center
Sat 06:06:32 PM 41.8019 -120.3040 168° South 526 605 38,900  Descending Seattle Center
Sat 06:07:32 PM 41.6625 -120.2640 167° South 526 605 39,000  Climbing Seattle Center
Sat 06:08:32 PM 41.5250 -120.2210 167° South 520 598 38,900 -66 Descending Seattle Center
Sat 06:09:03 PM 41.4419 -120.1960 168° South 514 592 38,900 66 Level Oakland Center
Sat 06:10:03 PM 41.3061 -120.1590 168° South 475 547 39,000  Climbing Oakland Center
Sat 06:11:03 PM 41.1683 -120.1190 167° South 480 552 38,900 -50 Descending Oakland Center
Sat 06:12:03 PM 41.0328 -120.0790 168° South 495 570 38,900 50 Level Oakland Center
Sat 06:13:03 PM 40.9242 -120.0480 168° South 495 570 39,000  Climbing Oakland Center
Sat 06:14:03 PM 40.7781 -120.0060 168° South 495 570 38,900  Descending Oakland Center
Sat 06:15:03 PM 40.6400 -119.9670 168° South 500 575 39,000 50 Climbing Oakland Center
Sat 06:16:03 PM 40.4897 -119.9250 168° South 500 575 39,000  Level Oakland Center
Sat 06:17:04 PM 40.3539 -119.8870 168° South 505 581 39,000  Level Oakland Center
Sat 06:18:03 PM 40.2181 -119.8480 168° South 505 581 39,000  Level Oakland Center
Sat 06:19:03 PM 40.0822 -119.8090 169° South 505 581 39,000  Level Oakland Center
Sat 06:20:03 PM 39.9442 -119.7740 167° South 510 587 39,000  Level Oakland Center
Sat 06:21:03 PM 39.8022 -119.7330 168° South 510 587 39,000  Level Oakland Center
Sat 06:22:03 PM 39.6619 -119.6950 169° South 510 587 39,000  Level Oakland Center
Sat 06:23:03 PM 39.5239 -119.6600 172° South 510 587 39,000  Level Oakland Center
Sat 06:24:03 PM 39.3861 -119.6360 174° South 510 587 39,000  Level Oakland Center
Sat 06:25:03 PM 39.2461 -119.6170 174° South 505 581 39,000  Level Oakland Center
Sat 06:26:03 PM 39.1231 -119.6000 173° South 505 581 39,000  Level Oakland Center
Sat 06:27:03 PM 38.9850 -119.5790 173° South 500 575 39,000  Level Oakland Center
Sat 06:28:03 PM 38.8494 -119.5580 174° South 500 575 39,000  Level Oakland Center
Sat 06:29:03 PM 38.7114 -119.5390 173° South 505 581 39,000  Level Oakland Center
Sat 06:30:04 PM 38.5736 -119.5180 174° South 505 581 39,000  Level Oakland Center
Sat 06:31:03 PM 38.4336 -119.4990 171° South 505 581 39,000  Level Oakland Center
Sat 06:32:03 PM 38.3019 -119.4730 176° South 500 575 39,000  Level Oakland Center
Sat 06:33:03 PM 38.1578 -119.4600 172° South 505 581 39,000  Level Oakland Center
Sat 06:34:03 PM 38.0197 -119.4360 173° South 505 581 39,000  Level Oakland Center
Sat 06:35:03 PM 37.8819 -119.4160 173° South 505 581 39,000  Level Oakland Center
Sat 06:36:03 PM 37.7461 -119.3950 174° South 505 581 39,000  Level Oakland Center
Sat 06:37:04 PM 37.5872 -119.3750 178° South 505 581 39,000  Level Oakland Center
Sat 06:38:03 PM 37.4639 -119.3690 173° South 505 581 39,000  Level Oakland Center
Sat 06:39:03 PM 37.3281 -119.3490 174° South 500 575 39,000  Level Oakland Center
Sat 06:40:03 PM 37.1881 -119.3290 174° South 500 575 39,000  Level Oakland Center
Sat 06:41:03 PM 37.0503 -119.3110 173° South 500 575 39,000  Level Oakland Center
Sat 06:42:03 PM 36.9142 -119.2900 174° South 500 575 39,000  Level Oakland Center
Sat 06:43:04 PM 36.7783 -119.2720 174° South 500 575 39,000  Level Oakland Center
Sat 06:44:03 PM 36.6447 -119.2550 173° South 495 570 39,000  Level Oakland Center
Sat 06:44:11 PM 36.6264 -119.2520 173° South 499 574 39,000  Level Los Angeles Center
Sat 06:45:11 PM 36.4892 -119.2310 175° South 499 574 39,000  Level Los Angeles Center
Sat 06:46:11 PM 36.3542 -119.2150 173° South 499 574 39,000  Level Los Angeles Center
Sat 06:47:11 PM 36.2169 -119.1950 166° South 499 574 39,000  Level Los Angeles Center
Sat 06:48:11 PM 36.0844 -119.1540 156° South 499 574 39,000  Level Los Angeles Center
Sat 06:49:11 PM 35.9547 -119.0840 158° South 499 574 39,000 -200 Level Los Angeles Center
Sat 06:50:11 PM 35.8147 -119.0130 159° South 499 574 38,600 -850 Descending Los Angeles Center
Sat 06:51:11 PM 35.6825 -118.9490 157° South 504 580 37,300 -1,350 Descending Los Angeles Center
Sat 06:52:11 PM 35.5506 -118.8810 158° South 504 580 35,900 -1,300 Descending Los Angeles Center
Sat 06:53:11 PM 35.4228 -118.8180 158° South 510 587 34,700 -2,200 Descending Los Angeles Center
Sat 06:54:11 PM 35.2906 -118.7530 158° South 510 587 31,500 -2,950 Descending Los Angeles Center
Sat 06:55:11 PM 35.1647 -118.6900 158° South 505 581 28,800 -1,750 Descending Los Angeles Center
Sat 06:56:11 PM 35.0428 -118.6310 138° Southeast 491 565 28,000 -2,000 Descending Los Angeles Center
Sat 06:57:11 PM 34.9528 -118.5310 131° Southeast 449 517 24,800 -2,400 Descending Los Angeles Center
Sat 06:58:11 PM 34.8817 -118.4310 129° Southeast 443 510 23,200 -1,800 Descending Los Angeles Center
Sat 06:59:11 PM 34.8067 -118.3200 131° Southeast 433 498 21,200 -1,600 Descending Los Angeles Center
Sat 07:00:11 PM 34.7314 -118.2140 128° Southeast 420 483 20,000 -1,200 Descending Los Angeles Center
Sat 07:01:11 PM 34.6642 -118.1110 111° Southeast 406 467 18,800 -1,250 Descending Los Angeles Center
Sat 07:02:11 PM 34.6283 -117.9970 92° East 373 429 17,500 -1,500 Descending Los Angeles Center
Sat 07:03:11 PM 34.6239 -117.8760 95° East 360 414 15,800 -1,700 Descending Los Angeles Center
Sat 07:04:11 PM 34.6153 -117.7570 95° East 355 409 14,100 -1,700 Descending Los Angeles Center

Login

Don't have an account? Register now (free) for customized features, flight alerts, and more!